createdAt,value
2023-04-27T00:01:14.558Z,1.95
2023-04-27T00:03:42.088Z,2.10
2023-04-27T00:06:09.883Z,1.73
2023-04-27T00:08:36.892Z,1.67
2023-04-27T00:11:03.948Z,2.05
2023-04-27T00:13:30.931Z,1.88
2023-04-27T00:15:57.603Z,1.50
2023-04-27T00:18:24.232Z,2.63
2023-04-27T00:20:50.951Z,1.70
2023-04-27T00:23:17.581Z,2.15
2023-04-27T00:25:44.202Z,2.05
2023-04-27T00:28:10.912Z,1.75
2023-04-27T00:30:37.704Z,1.83
2023-04-27T00:33:04.364Z,1.85
2023-04-27T00:35:35.144Z,1.83
2023-04-27T00:38:01.682Z,1.83
2023-04-27T00:40:28.331Z,2.03
2023-04-27T00:42:54.930Z,1.73
2023-04-27T00:45:21.609Z,2.20
2023-04-27T00:47:48.295Z,2.00
2023-04-27T00:50:15.091Z,1.80
2023-04-27T00:52:41.897Z,2.15
2023-04-27T00:55:09.584Z,2.28
2023-04-27T00:57:36.137Z,1.80
2023-04-27T01:00:06.690Z,1.80
2023-04-27T01:02:34.267Z,2.67
2023-04-27T01:05:01.933Z,2.33
2023-04-27T01:07:29.172Z,1.83
2023-04-27T01:09:56.302Z,1.90
2023-04-27T01:12:22.871Z,1.45
2023-04-27T01:14:49.405Z,1.98
2023-04-27T01:17:16.504Z,1.60
2023-04-27T01:19:44.917Z,1.80
2023-04-27T01:22:11.458Z,2.05
2023-04-27T01:24:38.058Z,1.48
2023-04-27T01:27:04.835Z,1.60
2023-04-27T01:29:31.433Z,1.70
2023-04-27T01:31:58.111Z,1.70
2023-04-27T01:34:24.693Z,1.90
2023-04-27T01:36:51.293Z,1.38
2023-04-27T01:39:17.837Z,1.35
2023-04-27T01:41:44.461Z,1.98
2023-04-27T01:44:11.898Z,1.65
2023-04-27T01:46:38.618Z,2.25
2023-04-27T01:49:05.570Z,1.90
2023-04-27T01:51:32.758Z,2.45
2023-04-27T01:53:59.496Z,2.00
2023-04-27T01:56:26.189Z,2.17
2023-04-27T01:58:53.816Z,1.77
2023-04-27T02:01:21.292Z,2.00
2023-04-27T02:03:48.099Z,2.30
2023-04-27T02:06:14.800Z,1.88
2023-04-27T02:08:41.366Z,1.95
2023-04-27T02:11:07.915Z,1.98
2023-04-27T02:13:34.494Z,1.77
2023-04-27T02:16:03.276Z,2.47
2023-04-27T02:18:30.350Z,1.65
2023-04-27T02:20:57.201Z,1.90
2023-04-27T02:23:23.811Z,2.25
2023-04-27T02:25:50.447Z,2.63
2023-04-27T02:28:17.007Z,1.80
2023-04-27T02:30:44.552Z,2.67
2023-04-27T02:33:11.189Z,2.47
2023-04-27T02:35:37.777Z,2.90
2023-04-27T02:38:04.357Z,2.00
2023-04-27T02:40:30.894Z,2.03
2023-04-27T02:42:57.488Z,2.72
2023-04-27T02:45:24.252Z,2.28
2023-04-27T02:47:50.998Z,2.40
2023-04-27T02:50:17.827Z,1.50
2023-04-27T02:52:44.431Z,1.67
2023-04-27T02:55:11.475Z,2.10
2023-04-27T02:57:38.097Z,1.75
2023-04-27T03:00:06.907Z,1.60
2023-04-27T03:02:33.654Z,1.60
2023-04-27T03:05:00.319Z,1.80
2023-04-27T03:07:26.923Z,1.98
2023-04-27T03:09:53.705Z,1.45
2023-04-27T03:12:20.259Z,1.73
2023-04-27T03:14:46.894Z,1.23
2023-04-27T03:17:13.469Z,1.83
2023-04-27T03:19:40.212Z,1.80
2023-04-27T03:22:06.735Z,1.88
2023-04-27T03:24:33.375Z,2.05
2023-04-27T03:27:00.147Z,2.20
2023-04-27T03:29:26.746Z,2.28
2023-04-27T03:31:53.381Z,1.88
2023-04-27T03:34:21.667Z,2.20
2023-04-27T03:36:48.254Z,1.92
2023-04-27T03:39:15.111Z,2.45
2023-04-27T03:41:42.001Z,1.85
2023-04-27T03:44:08.831Z,2.05
2023-04-27T03:46:35.453Z,1.73
2023-04-27T03:49:03.261Z,2.00
2023-04-27T03:51:32.375Z,1.95
2023-04-27T03:54:00.050Z,1.98
2023-04-27T03:56:26.733Z,1.85
2023-04-27T03:58:53.276Z,1.83
2023-04-27T04:01:19.930Z,1.55
2023-04-27T04:03:48.187Z,1.70
2023-04-27T04:06:14.894Z,2.13
2023-04-27T04:08:41.557Z,2.33
2023-04-27T04:11:08.143Z,1.75
2023-04-27T04:13:36.000Z,1.85
2023-04-27T04:16:04.051Z,1.90
2023-04-27T04:18:30.946Z,1.80
2023-04-27T04:20:57.882Z,2.05
2023-04-27T04:23:24.732Z,1.88
2023-04-27T04:25:51.556Z,1.75
2023-04-27T04:28:18.168Z,1.92
2023-04-27T04:30:45.718Z,2.38
2023-04-27T04:33:12.388Z,1.90
2023-04-27T04:35:39.705Z,1.98
2023-04-27T04:38:06.288Z,1.95
2023-04-27T04:40:32.914Z,2.15
2023-04-27T04:42:59.532Z,2.65
2023-04-27T04:45:26.945Z,2.15
2023-04-27T04:47:54.400Z,2.33
2023-04-27T04:50:21.862Z,2.67
2023-04-27T04:52:48.428Z,2.50
2023-04-27T04:55:15.523Z,3.05
2023-04-27T04:57:42.181Z,2.78
2023-04-27T05:00:12.772Z,2.65
2023-04-27T05:02:40.848Z,2.80
2023-04-27T05:05:08.287Z,2.15
2023-04-27T05:07:35.454Z,2.45
2023-04-27T05:10:02.132Z,2.75
2023-04-27T05:12:30.394Z,2.75
2023-04-27T05:14:57.191Z,2.53
2023-04-27T05:17:23.785Z,2.50
2023-04-27T05:19:50.425Z,2.85
2023-04-27T05:22:17.280Z,3.10
2023-04-27T05:24:43.869Z,2.58
2023-04-27T05:27:12.180Z,2.88
2023-04-27T05:29:41.266Z,2.75
2023-04-27T05:32:07.953Z,2.58
2023-04-27T05:34:34.743Z,2.78
2023-04-27T05:37:03.086Z,2.78
2023-04-27T05:39:30.278Z,2.58
2023-04-27T05:41:57.629Z,2.72
2023-04-27T05:44:28.209Z,2.75
2023-04-27T05:46:56.071Z,2.90
2023-04-27T05:49:24.869Z,2.63
2023-04-27T05:51:52.025Z,2.30
2023-04-27T05:54:18.657Z,2.47
2023-04-27T05:56:45.333Z,2.63
2023-04-27T05:59:13.649Z,2.45
2023-04-27T06:01:40.371Z,2.78
2023-04-27T06:04:07.403Z,2.85
2023-04-27T06:06:35.282Z,3.15
2023-04-27T06:09:02.000Z,2.35
2023-04-27T06:11:30.496Z,2.58
2023-04-27T06:13:57.104Z,2.53
2023-04-27T06:16:25.298Z,2.13
2023-04-27T06:18:52.229Z,2.78
2023-04-27T06:21:20.182Z,2.40
2023-04-27T06:23:46.779Z,3.03
2023-04-27T06:26:13.356Z,2.47
2023-04-27T06:28:39.902Z,2.00
2023-04-27T06:31:08.347Z,2.53
2023-04-27T06:33:34.989Z,2.00
2023-04-27T06:36:03.104Z,2.88
2023-04-27T06:38:29.720Z,2.92
2023-04-27T06:40:56.861Z,1.98
2023-04-27T06:43:23.430Z,2.58
2023-04-27T06:45:50.237Z,2.80
2023-04-27T06:48:17.212Z,1.77
2023-04-27T06:50:44.090Z,1.90
2023-04-27T06:53:10.770Z,2.38
2023-04-27T06:55:37.327Z,1.70
2023-04-27T06:58:04.332Z,2.35
2023-04-27T07:00:31.715Z,2.03
2023-04-27T07:02:58.476Z,2.40
2023-04-27T07:05:25.289Z,2.08
2023-04-27T07:07:53.632Z,2.08
2023-04-27T07:10:20.561Z,3.08
2023-04-27T07:12:47.141Z,2.08
2023-04-27T07:15:14.159Z,1.70
2023-04-27T07:17:41.403Z,2.08
2023-04-27T07:20:08.936Z,2.15
2023-04-27T07:22:35.808Z,1.63
2023-04-27T07:25:02.474Z,2.22
2023-04-27T07:27:29.144Z,1.77
2023-04-27T07:29:56.562Z,1.45
2023-04-27T07:32:25.656Z,1.73
2023-04-27T07:34:55.251Z,1.85
2023-04-27T07:37:24.721Z,2.00
2023-04-27T07:39:54.364Z,2.03
2023-04-27T07:42:24.956Z,1.50
2023-04-27T07:44:54.651Z,1.40
2023-04-27T07:47:21.886Z,1.38
2023-04-27T07:49:48.555Z,1.50
2023-04-27T07:52:15.898Z,1.75
2023-04-27T07:54:42.454Z,1.90
2023-04-27T07:57:13.293Z,1.60
2023-04-27T07:59:40.134Z,1.15
2023-04-27T08:02:19.106Z,1.70
2023-04-27T08:04:47.302Z,1.52
2023-04-27T08:07:16.326Z,1.90
2023-04-27T08:09:45.072Z,1.40
2023-04-27T08:12:11.736Z,1.83
2023-04-27T08:14:40.598Z,1.70
2023-04-27T08:17:07.297Z,1.90
2023-04-27T08:19:34.238Z,1.35
2023-04-27T08:22:02.931Z,1.73
2023-04-27T08:24:29.470Z,1.63
2023-04-27T08:26:56.210Z,2.22
2023-04-27T08:29:28.302Z,1.50
2023-04-27T08:31:58.513Z,1.48
2023-04-27T08:34:27.146Z,1.40
2023-04-27T08:36:54.182Z,2.10
2023-04-27T08:39:20.950Z,2.08
2023-04-27T08:41:47.555Z,1.90
2023-04-27T08:44:14.164Z,1.48
2023-04-27T08:46:41.221Z,1.50
2023-04-27T08:49:08.478Z,1.30
2023-04-27T08:51:35.135Z,1.80
2023-04-27T08:54:02.272Z,1.88
2023-04-27T08:56:30.535Z,1.92
2023-04-27T08:59:00.890Z,1.85
2023-04-27T09:01:27.740Z,1.60
2023-04-27T09:03:59.410Z,1.80
2023-04-27T09:06:31.519Z,1.50
2023-04-27T09:09:00.220Z,1.80
2023-04-27T09:11:36.860Z,1.50
2023-04-27T09:14:18.360Z,1.65
2023-04-27T09:16:45.515Z,1.40
2023-04-27T09:19:12.574Z,1.60
2023-04-27T09:21:39.342Z,1.27
2023-04-27T09:24:13.376Z,1.45
2023-04-27T09:26:42.561Z,1.30
2023-04-27T09:29:09.308Z,1.80
2023-04-27T09:31:38.348Z,1.67
2023-04-27T09:34:07.550Z,1.58
2023-04-27T09:36:34.555Z,1.55
2023-04-27T09:39:06.778Z,1.55
2023-04-27T09:41:33.626Z,1.42
2023-04-27T09:44:01.979Z,1.27
2023-04-27T09:46:29.891Z,1.38
2023-04-27T09:48:57.455Z,1.20
2023-04-27T09:51:25.899Z,1.50
2023-04-27T09:53:56.431Z,1.58
2023-04-27T09:56:35.314Z,1.60
2023-04-27T09:59:40.130Z,1.20
2023-04-27T10:02:23.052Z,1.40
2023-04-27T10:05:05.778Z,1.35
2023-04-27T10:07:33.079Z,1.73
2023-04-27T10:10:04.276Z,1.17
2023-04-27T10:12:36.925Z,1.58
2023-04-27T10:15:19.382Z,1.17
2023-04-27T10:17:51.447Z,1.35
2023-04-27T10:20:29.623Z,1.13
2023-04-27T10:22:56.856Z,1.50
2023-04-27T10:25:24.754Z,1.30
2023-04-27T10:27:56.449Z,1.70
2023-04-27T10:30:26.146Z,1.83
2023-04-27T10:32:58.125Z,1.33
2023-04-27T10:35:37.114Z,1.40
2023-04-27T10:38:10.693Z,1.52
2023-04-27T10:40:38.610Z,1.83
2023-04-27T10:43:12.765Z,1.50
2023-04-27T10:45:40.383Z,1.80
2023-04-27T10:48:07.685Z,1.50
2023-04-27T10:50:36.640Z,1.67
2023-04-27T10:53:08.128Z,1.77
2023-04-27T10:55:36.059Z,1.80
2023-04-27T10:58:05.736Z,1.73
2023-04-27T11:00:38.880Z,2.08
2023-04-27T11:03:18.633Z,2.35
2023-04-27T11:05:48.875Z,1.90
2023-04-27T11:08:17.640Z,1.85
2023-04-27T11:10:49.305Z,2.28
2023-04-27T11:13:20.752Z,2.47
2023-04-27T11:15:55.569Z,2.55
2023-04-27T11:18:31.532Z,2.55
2023-04-27T11:21:13.980Z,2.35
2023-04-27T11:23:41.554Z,2.35
2023-04-27T11:26:13.194Z,1.88
2023-04-27T11:28:39.842Z,1.77
2023-04-27T11:31:07.184Z,1.48
2023-04-27T11:33:35.854Z,1.67
2023-04-27T11:36:04.733Z,1.83
2023-04-27T11:38:34.291Z,1.75
2023-04-27T11:41:08.018Z,1.63
2023-04-27T11:43:35.007Z,2.05
2023-04-27T11:46:07.885Z,2.05
2023-04-27T11:48:39.555Z,1.83
2023-04-27T11:51:09.142Z,1.58
2023-04-27T11:53:37.877Z,2.13
2023-04-27T11:56:07.695Z,1.80
2023-04-27T11:58:37.940Z,2.03
2023-04-27T12:01:05.569Z,1.98
2023-04-27T12:03:32.773Z,1.77
2023-04-27T12:06:11.454Z,1.67
2023-04-27T12:08:43.109Z,2.17
2023-04-27T12:11:09.977Z,2.03
2023-04-27T12:13:37.833Z,1.80
2023-04-27T12:16:05.107Z,1.67
2023-04-27T12:18:31.800Z,1.98
2023-04-27T12:21:02.819Z,2.38
2023-04-27T12:23:30.040Z,2.00
2023-04-27T12:25:57.808Z,2.47
2023-04-27T12:28:25.669Z,1.60
2023-04-27T12:30:52.243Z,2.10
2023-04-27T12:33:19.023Z,2.15
2023-04-27T12:35:45.613Z,1.80
2023-04-27T12:38:14.197Z,1.80
2023-04-27T12:40:40.826Z,2.20
2023-04-27T12:43:09.138Z,2.05
2023-04-27T12:45:35.777Z,1.95
2023-04-27T12:48:04.209Z,2.40
2023-04-27T12:50:34.353Z,2.03
2023-04-27T12:53:01.224Z,2.35
2023-04-27T12:57:58.185Z,2.20
2023-04-27T13:00:25.188Z,2.50
2023-04-27T13:02:52.627Z,2.55
2023-04-27T13:05:21.786Z,2.75
2023-04-27T13:07:48.554Z,2.47
2023-04-27T13:10:16.733Z,2.60
2023-04-27T13:12:45.475Z,2.70
2023-04-27T13:15:13.878Z,2.15
2023-04-27T13:17:42.968Z,3.00
2023-04-27T13:20:14.370Z,2.90
2023-04-27T13:22:41.704Z,2.97
2023-04-27T13:25:11.238Z,2.17
2023-04-27T13:27:39.987Z,2.15
2023-04-27T13:30:09.506Z,2.33
2023-04-27T13:32:36.668Z,3.00
2023-04-27T13:35:04.058Z,3.08
2023-04-27T13:37:30.871Z,2.90
2023-04-27T13:40:00.166Z,2.28
2023-04-27T13:42:30.787Z,2.13
2023-04-27T13:44:57.401Z,2.42
2023-04-27T13:47:24.002Z,2.20
2023-04-27T13:49:51.792Z,2.20
2023-04-27T13:52:18.546Z,2.05
2023-04-27T13:54:47.230Z,2.65
2023-04-27T13:57:13.820Z,3.45
2023-04-27T13:59:40.367Z,2.63
2023-04-27T14:02:08.300Z,2.90
2023-04-27T14:04:37.050Z,2.83
2023-04-27T14:07:05.888Z,2.55
2023-04-27T14:09:34.396Z,3.00
2023-04-27T14:12:01.363Z,2.75
2023-04-27T14:14:28.650Z,3.17
2023-04-27T14:16:56.783Z,2.65
2023-04-27T14:19:24.101Z,2.45
2023-04-27T14:21:50.686Z,2.83
2023-04-27T14:24:17.263Z,2.95
2023-04-27T14:26:45.668Z,2.95
2023-04-27T14:29:14.092Z,2.92
2023-04-27T14:31:41.471Z,3.20
2023-04-27T14:34:08.609Z,2.88
2023-04-27T14:36:35.758Z,3.47
2023-04-27T14:39:02.957Z,3.35
2023-04-27T14:41:31.697Z,3.40
2023-04-27T14:43:58.268Z,2.92
2023-04-27T14:46:24.919Z,3.63
2023-04-27T14:48:51.562Z,3.35
2023-04-27T14:51:18.249Z,2.90
2023-04-27T14:53:46.513Z,3.15
2023-04-27T14:56:13.226Z,3.22
2023-04-27T14:58:39.881Z,3.00
2023-04-27T15:01:07.489Z,3.20
2023-04-27T15:03:34.655Z,2.92
2023-04-27T15:06:01.935Z,3.25
2023-04-27T15:08:30.129Z,3.42
2023-04-27T15:10:59.709Z,3.13
2023-04-27T15:13:27.039Z,3.72
2023-04-27T15:15:57.979Z,2.95
2023-04-27T15:18:25.120Z,3.67
2023-04-27T15:20:59.625Z,3.17
2023-04-27T15:23:27.405Z,3.83
2023-04-27T15:25:58.587Z,3.90
2023-04-27T15:28:25.163Z,3.60
2023-04-27T15:30:51.831Z,3.22
2023-04-27T15:33:19.039Z,3.60
2023-04-27T15:35:47.801Z,3.50
2023-04-27T15:38:16.581Z,3.45
2023-04-27T15:40:44.946Z,3.35
2023-04-27T15:43:11.552Z,3.50
2023-04-27T15:45:38.171Z,3.05
2023-04-27T15:48:04.972Z,3.28
2023-04-27T15:50:33.144Z,3.65
2023-04-27T15:52:59.736Z,3.60
2023-04-27T15:55:28.138Z,3.35
2023-04-27T15:57:54.706Z,3.28
2023-04-27T16:00:24.167Z,3.50
2023-04-27T16:02:51.011Z,3.50
2023-04-27T16:05:17.870Z,4.00
2023-04-27T16:07:45.484Z,3.40
2023-04-27T16:10:13.071Z,3.50
2023-04-27T16:12:39.825Z,3.95
2023-04-27T16:15:10.059Z,4.03
2023-04-27T16:17:37.882Z,3.58
2023-04-27T16:20:07.866Z,3.88
2023-04-27T16:22:35.484Z,3.63
2023-04-27T16:25:10.214Z,4.22
2023-04-27T16:27:37.858Z,3.10
2023-04-27T16:30:05.444Z,3.20
2023-04-27T16:32:35.036Z,3.65
2023-04-27T16:35:02.119Z,3.63
2023-04-27T16:37:28.775Z,4.15
2023-04-27T16:39:59.108Z,3.50
2023-04-27T16:42:26.057Z,3.47
2023-04-27T16:44:52.721Z,3.22
2023-04-27T16:47:19.840Z,3.40
2023-04-27T16:49:46.397Z,3.65
2023-04-27T16:52:13.086Z,3.17
2023-04-27T16:54:40.449Z,2.40
2023-04-27T16:57:08.036Z,2.92
2023-04-27T16:59:36.957Z,3.42
2023-04-27T17:02:20.741Z,3.08
2023-04-27T17:04:50.197Z,2.65
2023-04-27T17:07:18.960Z,3.88
2023-04-27T17:09:45.910Z,2.95
2023-04-27T17:12:16.158Z,3.20
2023-04-27T17:14:42.958Z,3.63
2023-04-27T17:17:11.106Z,3.00
2023-04-27T17:19:40.737Z,3.00
2023-04-27T17:22:12.696Z,3.25
2023-04-27T17:24:41.198Z,3.03
2023-04-27T17:27:07.825Z,3.20
2023-04-27T17:29:36.671Z,3.15
2023-04-27T17:32:08.790Z,2.83
2023-04-27T17:34:35.786Z,3.03
2023-04-27T17:37:03.504Z,3.00
2023-04-27T17:39:30.179Z,3.10
2023-04-27T17:42:00.735Z,3.00
2023-04-27T17:44:27.594Z,2.92
2023-04-27T17:46:54.561Z,3.10
2023-04-27T17:49:21.646Z,3.05
2023-04-27T17:51:49.152Z,3.03
2023-04-27T17:54:20.666Z,3.00
2023-04-27T17:56:47.727Z,3.40
2023-04-27T17:59:17.467Z,3.10
2023-04-27T18:01:44.843Z,3.20
2023-04-27T18:04:11.524Z,3.30
2023-04-27T18:06:38.172Z,3.20
2023-04-27T18:09:04.767Z,3.00
2023-04-27T18:11:32.904Z,3.15
2023-04-27T18:13:59.742Z,3.25
2023-04-27T18:16:26.336Z,3.17
2023-04-27T18:18:53.098Z,3.10
2023-04-27T18:21:21.264Z,2.90
2023-04-27T18:23:47.938Z,3.13
2023-04-27T18:26:14.682Z,3.30
2023-04-27T18:28:41.964Z,2.85
2023-04-27T18:31:14.337Z,3.38
2023-04-27T18:33:41.764Z,3.42
2023-04-27T18:36:08.676Z,2.85
2023-04-27T18:38:37.149Z,2.45
2023-04-27T18:41:04.586Z,2.53
2023-04-27T18:43:31.212Z,3.05
2023-04-27T18:45:57.978Z,2.83
2023-04-27T18:48:24.572Z,2.55
2023-04-27T18:50:52.621Z,3.10
2023-04-27T18:53:19.321Z,2.95
2023-04-27T18:55:46.001Z,2.92
2023-04-27T18:58:12.700Z,2.67
2023-04-27T19:00:41.267Z,2.10
2023-04-27T19:03:08.198Z,2.47
2023-04-27T19:05:35.544Z,2.65
2023-04-27T19:08:02.528Z,2.63
2023-04-27T19:10:29.165Z,2.45
2023-04-27T19:12:56.967Z,2.63
2023-04-27T19:15:23.783Z,2.78
2023-04-27T19:18:02.157Z,2.67
2023-04-27T19:20:36.531Z,2.40
2023-04-27T19:23:03.583Z,2.90
2023-04-27T19:25:30.267Z,2.70
2023-04-27T19:27:56.938Z,2.88
2023-04-27T19:30:23.585Z,2.55
2023-04-27T19:32:50.477Z,3.00
2023-04-27T19:35:18.690Z,3.88
2023-04-27T19:37:45.291Z,3.80
2023-04-27T19:40:12.358Z,3.65
2023-04-27T19:42:39.168Z,3.47
2023-04-27T19:45:06.837Z,6.05
2023-04-27T19:47:33.772Z,5.15
2023-04-27T19:50:00.527Z,3.63
2023-04-27T19:52:27.200Z,5.32
2023-04-27T19:54:54.202Z,3.97
2023-04-27T19:57:21.982Z,3.22
2023-04-27T19:59:48.787Z,2.70
2023-04-27T20:02:15.802Z,2.97
2023-04-27T20:04:43.075Z,3.20
2023-04-27T20:07:12.107Z,3.15
2023-04-27T20:09:39.248Z,3.25
2023-04-27T20:12:06.792Z,3.47
2023-04-27T20:14:38.534Z,3.33
2023-04-27T20:17:08.212Z,3.60
2023-04-27T20:19:37.304Z,3.17
2023-04-27T20:22:03.903Z,3.08
2023-04-27T20:24:34.514Z,3.60
2023-04-27T20:27:04.160Z,3.40
2023-04-27T20:29:31.618Z,3.92
2023-04-27T20:31:58.820Z,3.60
2023-04-27T20:34:25.618Z,3.58
2023-04-27T20:36:53.000Z,4.22
2023-04-27T20:39:24.044Z,4.13
2023-04-27T20:41:51.018Z,3.90
2023-04-27T20:44:18.429Z,3.72
2023-04-27T20:46:47.479Z,3.85
2023-04-27T20:49:24.632Z,3.55
2023-04-27T20:51:54.794Z,3.55
2023-04-27T20:54:22.291Z,3.72
2023-04-27T20:56:48.854Z,4.72
2023-04-27T20:59:15.768Z,3.88
2023-04-27T21:01:42.396Z,3.70
2023-04-27T21:04:09.193Z,4.50
2023-04-27T21:06:37.011Z,3.97
2023-04-27T21:09:03.678Z,3.97
2023-04-27T21:11:32.005Z,3.88
2023-04-27T21:13:58.561Z,3.55
2023-04-27T21:16:25.337Z,4.10
2023-04-27T21:18:51.971Z,4.72
2023-04-27T21:21:18.963Z,4.20
2023-04-27T21:23:48.059Z,4.03
2023-04-27T21:26:16.336Z,4.22
2023-04-27T21:28:43.905Z,4.35
2023-04-27T21:31:10.530Z,4.43
2023-04-27T21:33:37.126Z,3.75
2023-04-27T21:36:04.665Z,3.80
2023-04-27T21:38:31.333Z,4.20
2023-04-27T21:40:58.952Z,4.57
2023-04-27T21:43:26.016Z,5.97
2023-04-27T21:45:52.593Z,5.75
2023-04-27T21:48:19.426Z,5.40
2023-04-27T21:50:46.010Z,4.78
2023-04-27T21:53:12.590Z,6.00
2023-04-27T21:55:39.212Z,5.70
2023-04-27T21:58:05.785Z,6.30
2023-04-27T22:00:33.270Z,6.28
2023-04-27T22:02:59.867Z,6.18
2023-04-27T22:05:29.151Z,4.82
2023-04-27T22:07:57.735Z,4.15
2023-04-27T22:10:24.582Z,4.28
2023-04-27T22:12:51.818Z,4.32
2023-04-27T22:15:19.808Z,6.05
2023-04-27T22:17:46.534Z,7.38
2023-04-27T22:20:14.289Z,4.85
2023-04-27T22:22:41.377Z,4.15
2023-04-27T22:25:09.755Z,5.18
2023-04-27T22:27:44.607Z,5.18
2023-04-27T22:30:12.872Z,5.32
2023-04-27T22:32:39.502Z,5.82
2023-04-27T22:35:18.572Z,5.30
2023-04-27T22:37:51.948Z,4.82
2023-04-27T22:40:18.634Z,3.85
2023-04-27T22:42:45.376Z,4.45
2023-04-27T22:45:13.054Z,5.38
2023-04-27T22:47:41.325Z,4.47
2023-04-27T22:50:09.639Z,4.32
2023-04-27T22:52:37.132Z,4.30
2023-04-27T22:55:04.580Z,4.22
2023-04-27T22:57:31.368Z,4.05
2023-04-27T22:59:58.024Z,3.95
2023-04-27T23:02:24.777Z,3.67
2023-04-27T23:04:51.482Z,3.47
2023-04-27T23:07:18.085Z,3.47
2023-04-27T23:09:45.757Z,3.95
2023-04-27T23:12:12.405Z,3.90
2023-04-27T23:14:40.483Z,3.55
2023-04-27T23:17:07.410Z,3.67
2023-04-27T23:19:34.518Z,3.80
2023-04-27T23:22:01.854Z,3.55
2023-04-27T23:24:29.331Z,3.40
2023-04-27T23:26:56.216Z,3.28
2023-04-27T23:29:23.350Z,2.80
2023-04-27T23:31:49.914Z,3.35
2023-04-27T23:34:16.596Z,3.50
2023-04-27T23:36:43.601Z,3.00
2023-04-27T23:39:10.181Z,3.00
2023-04-27T23:41:37.097Z,3.28
2023-04-27T23:44:03.779Z,3.83
2023-04-27T23:46:30.439Z,3.38
2023-04-27T23:48:57.134Z,3.80
2023-04-27T23:51:23.695Z,3.58
2023-04-27T23:53:50.345Z,3.80
2023-04-27T23:56:20.110Z,4.07
2023-04-27T23:58:46.752Z,4.13
